createdAt,value
2023-05-17T00:00:28.468Z,3.80
2023-05-17T00:02:55.209Z,4.55
2023-05-17T00:05:22.008Z,3.70
2023-05-17T00:07:49.616Z,3.40
2023-05-17T00:10:16.386Z,2.58
2023-05-17T00:12:43.118Z,3.15
2023-05-17T00:15:10.435Z,2.90
2023-05-17T00:17:38.095Z,3.15
2023-05-17T00:20:05.832Z,2.70
2023-05-17T00:22:32.638Z,3.28
2023-05-17T00:24:59.253Z,3.13
2023-05-17T00:27:26.131Z,2.92
2023-05-17T00:29:52.939Z,3.20
2023-05-17T00:32:19.636Z,3.15
2023-05-17T00:34:46.266Z,3.50
2023-05-17T00:37:12.939Z,2.70
2023-05-17T00:39:39.559Z,2.97
2023-05-17T00:42:06.610Z,3.28
2023-05-17T00:44:33.351Z,3.25
2023-05-17T00:47:00.102Z,2.58
2023-05-17T00:49:27.307Z,2.47
2023-05-17T00:51:54.523Z,3.25
2023-05-17T00:54:22.079Z,2.67
2023-05-17T00:56:49.608Z,2.53
2023-05-17T00:59:17.348Z,2.58
2023-05-17T01:01:45.821Z,3.50
2023-05-17T01:04:12.752Z,3.22
2023-05-17T01:06:39.816Z,3.03
2023-05-17T01:09:08.436Z,3.00
2023-05-17T01:11:40.525Z,3.20
2023-05-17T01:14:24.134Z,3.25
2023-05-17T01:17:02.711Z,3.07
2023-05-17T01:20:08.046Z,2.53
2023-05-17T01:23:03.764Z,2.38
2023-05-17T01:26:01.580Z,2.55
2023-05-17T01:28:31.815Z,3.45
2023-05-17T01:31:01.080Z,3.60
2023-05-17T01:33:28.015Z,2.30
2023-05-17T01:35:54.761Z,2.63
2023-05-17T01:38:21.387Z,3.42
2023-05-17T01:41:07.063Z,3.10
2023-05-17T01:43:56.358Z,2.88
2023-05-17T01:46:40.865Z,2.67
2023-05-17T01:49:19.557Z,3.40
2023-05-17T01:51:57.548Z,4.20
2023-05-17T01:54:31.572Z,2.80
2023-05-17T01:56:59.495Z,3.60
2023-05-17T01:59:27.576Z,3.10
2023-05-17T02:02:06.263Z,3.38
2023-05-17T02:04:33.276Z,3.08
2023-05-17T02:06:59.929Z,3.03
2023-05-17T02:09:26.605Z,3.20
2023-05-17T02:11:53.291Z,2.90
2023-05-17T02:14:19.987Z,3.20
2023-05-17T02:16:46.783Z,3.80
2023-05-17T02:19:14.190Z,2.80
2023-05-17T02:21:40.994Z,2.85
2023-05-17T02:24:07.735Z,3.08
2023-05-17T02:26:34.383Z,3.10
2023-05-17T02:29:01.089Z,2.88
2023-05-17T02:31:28.025Z,3.00
2023-05-17T02:33:54.781Z,2.95
2023-05-17T02:36:21.739Z,2.70
2023-05-17T02:38:48.388Z,2.72
2023-05-17T02:41:15.990Z,3.58
2023-05-17T02:43:42.848Z,2.85
2023-05-17T02:46:09.437Z,3.60
2023-05-17T02:48:36.062Z,3.05
2023-05-17T02:51:02.998Z,3.60
2023-05-17T02:53:29.702Z,2.42
2023-05-17T02:55:59.122Z,2.42
2023-05-17T02:58:26.263Z,2.70
2023-05-17T03:00:52.995Z,2.97
2023-05-17T03:03:19.742Z,2.58
2023-05-17T03:05:47.075Z,3.33
2023-05-17T03:08:13.870Z,2.75
2023-05-17T03:10:40.528Z,2.72
2023-05-17T03:13:07.190Z,2.60
2023-05-17T03:15:33.997Z,2.53
2023-05-17T03:18:00.808Z,2.38
2023-05-17T03:20:27.630Z,1.95
2023-05-17T03:22:54.272Z,2.10
2023-05-17T03:25:20.888Z,1.60
2023-05-17T03:27:47.650Z,1.65
2023-05-17T03:30:14.507Z,1.83
2023-05-17T03:32:42.081Z,1.63
2023-05-17T03:35:09.479Z,1.55
2023-05-17T03:37:36.136Z,1.50
2023-05-17T03:40:03.411Z,1.63
2023-05-17T03:42:30.065Z,1.60
2023-05-17T03:44:56.754Z,1.98
2023-05-17T03:47:23.956Z,2.08
2023-05-17T03:49:50.711Z,1.60
2023-05-17T03:52:17.458Z,2.55
2023-05-17T03:54:44.949Z,1.42
2023-05-17T03:57:12.950Z,1.35
2023-05-17T03:59:39.651Z,1.10
2023-05-17T04:02:06.669Z,1.80
2023-05-17T04:04:33.801Z,1.77
2023-05-17T04:07:00.490Z,1.25
2023-05-17T04:09:27.186Z,1.50
2023-05-17T04:11:53.832Z,1.73
2023-05-17T04:14:20.515Z,0.93
2023-05-17T04:16:47.274Z,1.33
2023-05-17T04:19:13.982Z,1.60
2023-05-17T04:21:40.809Z,1.73
2023-05-17T04:24:07.690Z,1.13
2023-05-17T04:26:34.486Z,1.35
2023-05-17T04:29:01.408Z,1.52
2023-05-17T04:31:28.040Z,1.25
2023-05-17T04:33:54.816Z,1.02
2023-05-17T04:36:21.464Z,1.17
2023-05-17T04:38:48.027Z,1.20
2023-05-17T04:41:14.704Z,1.23
2023-05-17T04:43:41.988Z,1.10
2023-05-17T04:46:09.185Z,1.50
2023-05-17T04:48:36.577Z,1.42
2023-05-17T04:51:04.507Z,1.58
2023-05-17T04:53:31.439Z,1.27
2023-05-17T04:55:58.717Z,1.55
2023-05-17T04:58:25.502Z,1.58
2023-05-17T05:00:52.547Z,1.73
2023-05-17T05:03:19.386Z,1.58
2023-05-17T05:05:46.086Z,1.38
2023-05-17T05:08:12.724Z,1.40
2023-05-17T05:10:39.626Z,1.60
2023-05-17T05:13:06.296Z,1.63
2023-05-17T05:15:33.326Z,2.10
2023-05-17T05:18:00.006Z,1.10
2023-05-17T05:20:27.948Z,2.28
2023-05-17T05:22:55.024Z,1.05
2023-05-17T05:25:21.667Z,1.45
2023-05-17T05:27:48.410Z,1.33
2023-05-17T05:30:21.984Z,1.33
2023-05-17T05:32:49.976Z,1.77
2023-05-17T05:35:17.635Z,1.17
2023-05-17T05:37:46.363Z,1.27
2023-05-17T05:40:13.603Z,1.80
2023-05-17T05:42:40.308Z,2.85
2023-05-17T05:45:08.268Z,1.80
2023-05-17T05:47:36.579Z,1.65
2023-05-17T05:50:04.064Z,2.28
2023-05-17T05:52:30.767Z,2.22
2023-05-17T05:54:57.376Z,1.48
2023-05-17T05:57:24.136Z,2.45
2023-05-17T05:59:50.857Z,2.33
2023-05-17T06:02:17.740Z,2.03
2023-05-17T06:04:45.937Z,2.03
2023-05-17T06:07:13.781Z,1.63
2023-05-17T06:09:41.875Z,1.65
2023-05-17T06:12:08.670Z,2.08
2023-05-17T06:14:37.366Z,1.40
2023-05-17T06:17:04.773Z,2.08
2023-05-17T06:19:31.645Z,1.38
2023-05-17T06:21:58.580Z,1.98
2023-05-17T06:24:25.421Z,2.05
2023-05-17T06:26:52.043Z,1.65
2023-05-17T06:29:19.147Z,1.58
2023-05-17T06:31:46.850Z,1.77
2023-05-17T06:34:13.556Z,1.75
2023-05-17T06:36:40.912Z,1.90
2023-05-17T06:39:08.558Z,1.58
2023-05-17T06:41:35.586Z,2.30
2023-05-17T06:44:02.274Z,1.63
2023-05-17T06:46:29.359Z,1.63
2023-05-17T06:48:56.729Z,2.20
2023-05-17T06:51:23.826Z,2.13
2023-05-17T06:53:50.733Z,1.75
2023-05-17T06:56:17.564Z,1.80
2023-05-17T06:58:44.247Z,1.80
2023-05-17T07:01:11.208Z,1.98
2023-05-17T07:03:37.919Z,2.05
2023-05-17T07:06:05.308Z,2.20
2023-05-17T07:08:31.925Z,1.85
2023-05-17T07:10:58.618Z,1.80
2023-05-17T07:13:25.522Z,2.15
2023-05-17T07:15:52.153Z,2.13
2023-05-17T07:18:18.797Z,1.50
2023-05-17T07:20:45.598Z,2.03
2023-05-17T07:23:12.593Z,1.38
2023-05-17T07:25:40.420Z,1.05
2023-05-17T07:28:07.117Z,1.00
2023-05-17T07:30:33.831Z,1.85
2023-05-17T07:33:00.581Z,1.17
2023-05-17T07:35:29.553Z,1.10
2023-05-17T07:37:56.467Z,1.25
2023-05-17T07:40:23.028Z,1.40
2023-05-17T07:42:50.020Z,1.27
2023-05-17T07:45:16.697Z,1.45
2023-05-17T07:47:43.426Z,0.98
2023-05-17T07:50:11.302Z,1.08
2023-05-17T07:52:38.084Z,1.65
2023-05-17T07:55:06.775Z,1.40
2023-05-17T07:57:33.707Z,1.25
2023-05-17T08:00:00.598Z,1.00
2023-05-17T08:02:27.255Z,1.42
2023-05-17T08:04:54.049Z,0.85
2023-05-17T08:07:20.859Z,1.02
2023-05-17T08:09:47.526Z,1.27
2023-05-17T08:12:14.153Z,1.00
2023-05-17T08:14:40.811Z,1.60
2023-05-17T08:17:07.515Z,1.58
2023-05-17T08:19:34.796Z,1.23
2023-05-17T08:22:01.625Z,1.00
2023-05-17T08:24:28.311Z,1.30
2023-05-17T08:26:55.025Z,1.60
2023-05-17T08:29:21.704Z,1.35
2023-05-17T08:31:48.301Z,1.25
2023-05-17T08:34:15.043Z,0.93
2023-05-17T08:36:42.379Z,1.10
2023-05-17T08:39:09.112Z,1.25
2023-05-17T08:41:39.058Z,0.80
2023-05-17T08:44:06.445Z,0.98
2023-05-17T08:46:36.796Z,1.08
2023-05-17T08:49:06.584Z,1.00
2023-05-17T08:51:33.745Z,1.33
2023-05-17T08:54:05.082Z,1.30
2023-05-17T08:56:33.067Z,1.10
2023-05-17T08:59:00.183Z,1.35
2023-05-17T09:01:29.883Z,1.40
2023-05-17T09:04:00.130Z,1.25
2023-05-17T09:06:27.341Z,1.42
2023-05-17T09:08:55.234Z,1.13
2023-05-17T09:11:33.055Z,1.67
2023-05-17T09:14:01.518Z,1.42
2023-05-17T09:16:33.558Z,1.38
2023-05-17T09:19:01.496Z,1.08
2023-05-17T09:21:30.987Z,1.48
2023-05-17T09:24:07.431Z,1.35
2023-05-17T09:26:43.294Z,1.40
2023-05-17T09:29:12.005Z,1.55
2023-05-17T09:31:39.614Z,1.15
2023-05-17T09:34:09.832Z,1.20
2023-05-17T09:36:38.226Z,1.17
2023-05-17T09:39:10.640Z,1.40
2023-05-17T09:41:45.289Z,1.00
2023-05-17T09:44:14.070Z,1.30
2023-05-17T09:46:48.271Z,1.45
2023-05-17T09:49:16.319Z,1.48
2023-05-17T09:51:44.866Z,1.15
2023-05-17T09:54:12.198Z,1.15
2023-05-17T09:56:39.793Z,1.60
2023-05-17T09:59:14.751Z,1.33
2023-05-17T10:01:43.769Z,1.23
2023-05-17T10:04:11.975Z,1.13
2023-05-17T10:09:13.696Z,1.35
2023-05-17T10:11:43.052Z,1.00
2023-05-17T10:14:23.148Z,1.50
2023-05-17T10:16:51.736Z,1.33
2023-05-17T10:19:20.841Z,1.42
2023-05-17T10:21:48.625Z,1.38
2023-05-17T10:24:16.647Z,1.60
2023-05-17T10:26:44.058Z,1.52
2023-05-17T10:29:11.582Z,1.45
2023-05-17T10:31:41.175Z,1.60
2023-05-17T10:34:10.167Z,1.55
2023-05-17T10:36:38.102Z,1.45
2023-05-17T10:39:09.593Z,1.35
2023-05-17T10:41:39.734Z,1.67
2023-05-17T10:44:08.262Z,1.45
2023-05-17T10:46:36.234Z,1.65
2023-05-17T10:49:03.584Z,1.65
2023-05-17T10:51:34.859Z,1.40
2023-05-17T10:54:19.656Z,1.25
2023-05-17T10:56:53.807Z,1.70
2023-05-17T10:59:26.750Z,1.40
2023-05-17T11:02:03.368Z,1.50
2023-05-17T11:04:42.030Z,1.48
2023-05-17T11:07:18.745Z,1.50
2023-05-17T11:09:49.154Z,1.33
2023-05-17T11:12:16.750Z,1.67
2023-05-17T11:14:48.345Z,1.05
2023-05-17T11:17:44.639Z,1.35
2023-05-17T11:20:26.658Z,1.30
2023-05-17T11:23:14.801Z,1.73
2023-05-17T11:25:41.648Z,1.58
2023-05-17T11:28:29.085Z,1.45
2023-05-17T11:31:01.486Z,1.80
2023-05-17T11:33:44.850Z,1.08
2023-05-17T11:36:20.474Z,0.95
2023-05-17T11:39:10.032Z,1.10
2023-05-17T11:41:41.551Z,1.25
2023-05-17T11:44:11.541Z,1.20
2023-05-17T11:46:39.099Z,1.40
2023-05-17T11:49:09.600Z,1.13
2023-05-17T11:51:36.700Z,1.23
2023-05-17T11:54:04.225Z,1.20
2023-05-17T11:59:09.529Z,1.10
2023-05-17T12:01:46.507Z,1.10
2023-05-17T12:04:13.388Z,1.25
2023-05-17T12:06:40.467Z,1.02
2023-05-17T12:09:11.312Z,1.00
2023-05-17T12:11:39.499Z,1.48
2023-05-17T12:14:06.717Z,0.95
2023-05-17T12:16:36.872Z,1.05
2023-05-17T12:19:03.808Z,0.95
2023-05-17T12:21:30.624Z,1.13
2023-05-17T12:23:57.411Z,1.60
2023-05-17T12:26:24.417Z,1.20
2023-05-17T12:28:59.631Z,1.40
2023-05-17T12:31:29.064Z,1.33
2023-05-17T12:33:56.327Z,1.40
2023-05-17T12:36:23.505Z,1.70
2023-05-17T12:38:50.769Z,1.67
2023-05-17T12:41:18.216Z,1.88
2023-05-17T12:43:45.865Z,1.60
2023-05-17T12:46:20.705Z,1.30
2023-05-17T12:48:49.111Z,1.67
2023-05-17T12:51:23.571Z,0.98
2023-05-17T12:53:51.152Z,1.90
2023-05-17T12:56:19.891Z,1.20
2023-05-17T12:59:12.730Z,1.60
2023-05-17T13:01:44.820Z,1.45
2023-05-17T13:04:12.982Z,1.33
2023-05-17T13:06:53.073Z,1.50
2023-05-17T13:09:22.025Z,1.00
2023-05-17T13:11:57.228Z,1.67
2023-05-17T13:14:33.553Z,1.48
2023-05-17T13:17:01.022Z,1.65
2023-05-17T13:19:28.146Z,1.20
2023-05-17T13:21:54.817Z,1.35
2023-05-17T13:24:21.467Z,1.27
2023-05-17T13:26:48.062Z,1.27
2023-05-17T13:29:15.033Z,1.50
2023-05-17T13:31:42.954Z,1.23
2023-05-17T13:34:09.615Z,0.80
2023-05-17T13:36:36.236Z,0.80
2023-05-17T13:39:02.895Z,0.95
2023-05-17T13:41:29.638Z,1.40
2023-05-17T13:43:57.526Z,1.00
2023-05-17T13:46:24.093Z,1.13
2023-05-17T13:48:50.794Z,1.70
2023-05-17T13:51:17.999Z,1.80
2023-05-17T13:53:44.624Z,1.35
2023-05-17T13:56:11.283Z,1.83
2023-05-17T13:58:37.865Z,1.30
2023-05-17T14:01:04.666Z,1.83
2023-05-17T14:03:31.838Z,1.33
2023-05-17T14:05:58.622Z,1.45
2023-05-17T14:08:25.563Z,1.38
2023-05-17T14:10:52.168Z,1.85
2023-05-17T14:13:18.840Z,1.10
2023-05-17T14:15:45.705Z,1.50
2023-05-17T14:18:12.477Z,0.95
2023-05-17T14:20:39.174Z,1.50
2023-05-17T14:23:19.048Z,1.45
2023-05-17T14:25:48.960Z,0.95
2023-05-17T14:28:19.328Z,1.50
2023-05-17T14:30:47.300Z,1.70
2023-05-17T14:33:13.980Z,1.88
2023-05-17T14:35:40.679Z,2.00
2023-05-17T14:38:07.308Z,2.10
2023-05-17T14:40:34.003Z,1.50
2023-05-17T14:43:00.622Z,1.50
2023-05-17T14:45:27.236Z,1.27
2023-05-17T14:47:53.919Z,1.77
2023-05-17T14:50:21.113Z,1.17
2023-05-17T14:52:47.810Z,1.52
2023-05-17T14:55:16.407Z,1.35
2023-05-17T14:57:43.728Z,1.67
2023-05-17T15:00:11.285Z,1.45
2023-05-17T15:02:38.922Z,1.33
2023-05-17T15:05:06.031Z,1.42
2023-05-17T15:07:33.771Z,1.67
2023-05-17T15:10:00.464Z,1.50
2023-05-17T15:12:27.170Z,1.67
2023-05-17T15:14:54.007Z,1.20
2023-05-17T15:17:50.715Z,1.45
2023-05-17T15:20:18.870Z,1.50
2023-05-17T15:22:45.717Z,1.83
2023-05-17T15:25:12.433Z,1.02
2023-05-17T15:27:39.137Z,1.27
2023-05-17T15:30:06.578Z,1.30
2023-05-17T15:32:34.349Z,1.50
2023-05-17T15:35:01.162Z,1.20
2023-05-17T15:37:27.818Z,1.65
2023-05-17T15:39:55.843Z,1.17
2023-05-17T15:42:23.701Z,1.38
2023-05-17T15:44:50.686Z,1.38
2023-05-17T15:47:17.286Z,1.73
2023-05-17T15:49:45.523Z,1.50
2023-05-17T15:52:12.781Z,1.95
2023-05-17T15:54:39.562Z,1.65
2023-05-17T15:57:06.382Z,1.45
2023-05-17T15:59:33.080Z,1.80
2023-05-17T16:01:59.815Z,1.90
2023-05-17T16:04:26.599Z,1.58
2023-05-17T16:06:53.279Z,1.73
2023-05-17T16:09:19.946Z,1.50
2023-05-17T16:11:46.636Z,1.63
2023-05-17T16:14:13.294Z,1.38
2023-05-17T16:16:40.036Z,1.23
2023-05-17T16:19:06.823Z,1.20
2023-05-17T16:21:33.601Z,0.80
2023-05-17T16:24:00.306Z,1.25
2023-05-17T16:26:27.787Z,1.20
2023-05-17T16:28:56.804Z,1.10
2023-05-17T16:31:23.803Z,1.08
2023-05-17T16:33:51.802Z,1.30
2023-05-17T16:36:18.747Z,1.13
2023-05-17T16:38:45.388Z,0.65
2023-05-17T16:41:12.318Z,1.20
2023-05-17T16:43:38.959Z,0.90
2023-05-17T16:46:05.780Z,1.38
2023-05-17T16:48:32.452Z,1.38
2023-05-17T16:51:00.506Z,1.30
2023-05-17T16:53:28.865Z,1.85
2023-05-17T16:55:56.017Z,1.48
2023-05-17T16:58:22.699Z,1.73
2023-05-17T17:00:50.889Z,1.10
2023-05-17T17:03:17.570Z,1.20
2023-05-17T17:05:44.322Z,1.35
2023-05-17T17:08:11.430Z,1.67
2023-05-17T17:10:38.245Z,1.73
2023-05-17T17:13:04.998Z,2.00
2023-05-17T17:15:31.815Z,1.70
2023-05-17T17:17:58.537Z,1.55
2023-05-17T17:20:25.292Z,2.05
2023-05-17T17:22:52.075Z,1.98
2023-05-17T17:25:25.402Z,1.23
2023-05-17T17:27:53.230Z,1.48
2023-05-17T17:30:20.514Z,1.60
2023-05-17T17:32:47.634Z,1.50
2023-05-17T17:35:14.590Z,1.45
2023-05-17T17:37:41.409Z,1.60
2023-05-17T17:40:08.975Z,2.03
2023-05-17T17:42:35.706Z,1.75
2023-05-17T17:45:02.721Z,1.67
2023-05-17T17:47:29.629Z,1.55
2023-05-17T17:49:56.470Z,2.08
2023-05-17T17:52:23.239Z,1.55
2023-05-17T17:54:50.210Z,2.22
2023-05-17T17:57:19.013Z,1.50
2023-05-17T17:59:45.965Z,1.52
2023-05-17T18:02:12.636Z,1.63
2023-05-17T18:04:40.563Z,1.50
2023-05-17T18:07:07.875Z,2.30
2023-05-17T18:09:35.213Z,1.45
2023-05-17T18:12:01.915Z,1.45
2023-05-17T18:14:28.658Z,2.05
2023-05-17T18:16:55.658Z,1.10
2023-05-17T18:19:22.749Z,1.42
2023-05-17T18:21:50.792Z,1.33
2023-05-17T18:24:17.530Z,1.33
2023-05-17T18:26:44.679Z,1.30
2023-05-17T18:29:11.543Z,1.58
2023-05-17T18:31:38.405Z,1.67
2023-05-17T18:34:05.462Z,1.80
2023-05-17T18:36:32.286Z,1.60
2023-05-17T18:39:00.844Z,1.45
2023-05-17T18:41:27.793Z,1.55
2023-05-17T18:43:54.577Z,1.33
2023-05-17T18:46:21.636Z,1.67
2023-05-17T18:48:48.392Z,1.98
2023-05-17T18:51:15.794Z,1.80
2023-05-17T18:53:42.755Z,2.20
2023-05-17T18:56:09.496Z,1.67
2023-05-17T18:58:36.254Z,1.08
2023-05-17T19:01:03.283Z,1.92
2023-05-17T19:03:31.324Z,1.58
2023-05-17T19:05:58.075Z,1.40
2023-05-17T19:08:24.830Z,1.25
2023-05-17T19:10:51.989Z,2.00
2023-05-17T19:13:18.644Z,1.23
2023-05-17T19:15:45.322Z,2.35
2023-05-17T19:18:12.083Z,1.63
2023-05-17T19:20:38.842Z,1.80
2023-05-17T19:23:06.078Z,1.83
2023-05-17T19:25:32.870Z,1.70
2023-05-17T19:27:59.839Z,1.83
2023-05-17T19:30:26.608Z,1.50
2023-05-17T19:32:53.467Z,1.52
2023-05-17T19:35:20.161Z,1.45
2023-05-17T19:37:46.830Z,1.75
2023-05-17T19:40:14.796Z,1.40
2023-05-17T19:42:41.588Z,2.08
2023-05-17T19:45:10.904Z,1.63
2023-05-17T19:47:37.851Z,1.13
2023-05-17T19:50:04.777Z,1.77
2023-05-17T19:52:31.505Z,1.58
2023-05-17T19:54:58.172Z,1.52
2023-05-17T19:57:25.507Z,2.28
2023-05-17T19:59:52.415Z,1.60
2023-05-17T20:02:19.426Z,1.50
2023-05-17T20:04:47.116Z,1.65
2023-05-17T20:07:14.992Z,1.85
2023-05-17T20:09:42.825Z,1.50
2023-05-17T20:12:09.684Z,1.73
2023-05-17T20:14:37.704Z,1.75
2023-05-17T20:17:04.535Z,1.50
2023-05-17T20:19:31.355Z,1.63
2023-05-17T20:21:58.182Z,1.77
2023-05-17T20:24:25.932Z,1.00
2023-05-17T20:26:52.934Z,1.40
2023-05-17T20:29:19.692Z,1.48
2023-05-17T20:31:46.420Z,1.40
2023-05-17T20:34:13.147Z,1.90
2023-05-17T20:36:39.878Z,1.60
2023-05-17T20:39:07.120Z,1.52
2023-05-17T20:41:33.932Z,1.88
2023-05-17T20:44:00.681Z,1.38
2023-05-17T20:46:29.953Z,1.67
2023-05-17T20:48:58.142Z,1.55
2023-05-17T20:51:26.968Z,1.70
2023-05-17T20:53:53.800Z,1.80
2023-05-17T20:56:20.500Z,1.48
2023-05-17T20:58:48.557Z,1.67
2023-05-17T21:01:15.565Z,1.95
2023-05-17T21:03:43.324Z,1.48
2023-05-17T21:06:10.448Z,1.80
2023-05-17T21:08:37.336Z,1.42
2023-05-17T21:11:04.417Z,1.60
2023-05-17T21:13:31.675Z,1.75
2023-05-17T21:15:58.807Z,1.83
2023-05-17T21:18:26.495Z,2.00
2023-05-17T21:20:55.193Z,1.80
2023-05-17T21:23:22.381Z,2.08
2023-05-17T21:25:49.781Z,1.48
2023-05-17T21:28:18.661Z,1.55
2023-05-17T21:30:45.917Z,2.03
2023-05-17T21:33:13.125Z,1.90
2023-05-17T21:35:40.225Z,1.88
2023-05-17T21:38:07.375Z,1.60
2023-05-17T21:40:34.798Z,2.60
2023-05-17T21:43:02.177Z,2.17
2023-05-17T21:45:29.224Z,1.73
2023-05-17T21:47:56.300Z,2.80
2023-05-17T21:50:23.847Z,1.83
2023-05-17T21:52:51.186Z,1.73
2023-05-17T21:55:18.446Z,2.28
2023-05-17T21:57:46.158Z,2.08
2023-05-17T22:00:13.589Z,2.20
2023-05-17T22:02:41.199Z,2.25
2023-05-17T22:05:08.785Z,1.98
2023-05-17T22:07:36.350Z,2.33
2023-05-17T22:10:05.094Z,1.98
2023-05-17T22:12:35.057Z,2.55
2023-05-17T22:15:02.918Z,1.70
2023-05-17T22:17:42.597Z,1.98
2023-05-17T22:20:14.714Z,1.95
2023-05-17T22:22:41.968Z,2.22
2023-05-17T22:25:09.498Z,1.60
2023-05-17T22:27:36.473Z,1.88
2023-05-17T22:30:04.396Z,1.42
2023-05-17T22:32:31.408Z,1.60
2023-05-17T22:34:58.369Z,2.10
2023-05-17T22:37:25.489Z,2.28
2023-05-17T22:39:52.540Z,2.38
2023-05-17T22:42:19.613Z,1.63
2023-05-17T22:44:46.636Z,1.83
2023-05-17T22:47:15.078Z,2.15
2023-05-17T22:49:42.565Z,1.40
2023-05-17T22:52:11.327Z,1.42
2023-05-17T22:54:39.259Z,1.77
2023-05-17T22:57:07.190Z,2.08
2023-05-17T22:59:34.250Z,1.70
2023-05-17T23:02:04.268Z,1.50
2023-05-17T23:04:31.686Z,1.60
2023-05-17T23:07:02.645Z,2.35
2023-05-17T23:09:30.329Z,1.70
2023-05-17T23:11:59.669Z,1.73
2023-05-17T23:14:26.558Z,1.80
2023-05-17T23:16:53.645Z,1.65
2023-05-17T23:19:21.194Z,1.77
2023-05-17T23:21:49.253Z,2.17
2023-05-17T23:24:16.499Z,2.47
2023-05-17T23:26:43.437Z,1.92
2023-05-17T23:29:10.920Z,2.15
2023-05-17T23:31:38.820Z,2.05
2023-05-17T23:34:07.256Z,1.83
2023-05-17T23:36:35.008Z,1.88
2023-05-17T23:39:02.362Z,1.95
2023-05-17T23:41:29.725Z,1.40
2023-05-17T23:43:57.397Z,1.65
2023-05-17T23:46:24.857Z,1.60
2023-05-17T23:48:51.978Z,2.00
2023-05-17T23:51:20.152Z,1.70
2023-05-17T23:53:49.198Z,2.03
2023-05-17T23:56:17.646Z,1.60
2023-05-17T23:58:47.803Z,2.47
